Mistatim, Canada
Current Conditions -  °F | °C
As of 6:00 AM on Thursday 27 Nov 2014 (Local Time) from CYBU Reporting Station
Overcast Overcast  
Wind Chill: -10°   Ceiling: 2900
Heat Index:   Visibility: 9mi
Dew Point: -4°   Wind: 5mph
Humidity: 85%   Direction: 160°SSE
Pressure: 30.2"   Gusts: NA
Location:  52.87°N, 103.37°W
Report Text: CYBU 271200Z AUTO 16004KT 9SM BKN029 OVC060 M18/M20 A3020 RMK SLP269
Loading
Personal Weather Stations






























Interactive Weather Map New forecast layout! Learn more

10-Day Weather Forecast

Advertisements
Track Severe Weather on mobile